Time;durP1;ratioP1;P1;durP2;ratioP2;P2;SDS_P1;SDS_P2;PMS_P1;PMS_P2;Temp;Humidity;BMP_temperature;BMP_pressure;BME280_temperature;BME280_humidity;BME280_pressure;Samples;Min_cycle;Max_cycle;Signal;HPM_P1;HPM_P2
2022/08/18 00:02:13;;;;;;;9.45;8.65;;;;;;;18.31;100.00;101013.31;5009516;28;20267;-47
2022/08/18 00:04:39;;;;;;;8.80;7.97;;;;;;;18.27;100.00;101006.34;5010937;28;20233;-48
2022/08/18 00:07:06;;;;;;;8.45;7.75;;;;;;;18.24;100.00;101017.44;5010870;28;20678;-47
2022/08/18 00:09:34;;;;;;;8.05;7.35;;;;;;;18.21;100.00;101004.06;5010605;28;20272;-48
2022/08/18 00:12:03;;;;;;;7.75;7.03;;;;;;;18.16;100.00;101003.50;5010924;28;20184;-49
2022/08/18 00:14:30;;;;;;;6.80;6.13;;;;;;;18.05;100.00;100994.25;5010928;28;20188;-48
2022/08/18 00:16:56;;;;;;;6.50;6.00;;;;;;;18.12;100.00;101000.97;5010742;28;20616;-47
2022/08/18 00:19:22;;;;;;;5.65;5.15;;;;;;;18.15;100.00;100997.22;5010336;28;20201;-47
2022/08/18 00:21:48;;;;;;;5.97;5.38;;;;;;;18.08;100.00;101002.19;5011000;28;20164;-47
2022/08/18 00:24:13;;;;;;;5.05;4.55;;;;;;;18.12;100.00;100990.13;5010388;28;20247;-48
2022/08/18 00:26:39;;;;;;;7.18;5.15;;;;;;;18.03;100.00;101003.47;5009986;28;20284;-48
2022/08/18 00:29:04;;;;;;;5.75;5.15;;;;;;;18.00;100.00;101014.53;5009950;28;20191;-49
2022/08/18 00:31:30;;;;;;;5.00;4.60;;;;;;;17.98;100.00;101009.19;5010402;28;20189;-48
2022/08/18 00:33:56;;;;;;;5.40;4.80;;;;;;;18.00;100.00;101000.97;5009201;28;20200;-47
2022/08/18 00:36:22;;;;;;;7.22;4.97;;;;;;;17.98;100.00;101006.47;5010382;28;20177;-47
2022/08/18 00:38:47;;;;;;;5.43;5.03;;;;;;;18.05;100.00;101001.50;5010100;28;20523;-48
2022/08/18 00:41:13;;;;;;;7.25;5.18;;;;;;;18.03;100.00;101007.03;5010321;28;20257;-48
2022/08/18 00:43:44;;;;;;;5.22;4.47;;;;;;;17.94;100.00;101010.34;5010261;28;20227;-47
2022/08/18 00:46:15;;;;;;;7.00;4.32;;;;;;;18.00;100.00;101012.66;5009310;28;20727;-47
2022/08/18 00:48:40;;;;;;;5.28;4.80;;;;;;;18.01;100.00;101003.53;5010418;28;20164;-48
2022/08/18 00:51:11;;;;;;;6.35;4.80;;;;;;;17.90;100.00;101006.09;5010105;28;20268;-47
2022/08/18 00:53:44;;;;;;;5.43;4.93;;;;;;;17.94;100.00;101006.78;5010056;28;20252;-47
2022/08/18 00:56:15;;;;;;;8.00;4.60;;;;;;;17.97;100.00;101002.00;5010072;28;20206;-48
2022/08/18 00:58:50;;;;;;;5.00;4.53;;;;;;;17.90;100.00;101008.81;5009795;28;20181;-48
2022/08/18 01:01:22;;;;;;;4.82;4.43;;;;;;;17.90;100.00;100997.97;5010180;28;20207;-48
2022/08/18 01:03:52;;;;;;;5.47;4.97;;;;;;;17.95;100.00;101003.97;5009873;28;20196;-48
2022/08/18 01:06:33;;;;;;;4.88;4.47;;;;;;;17.89;100.00;100991.69;5009817;28;20228;-49
2022/08/18 01:09:00;;;;;;;4.18;3.88;;;;;;;17.98;100.00;100986.63;5009574;28;20177;-48
2022/08/18 01:11:26;;;;;;;4.60;4.30;;;;;;;17.95;100.00;100989.53;5010093;28;20231;-49
2022/08/18 01:13:52;;;;;;;5.30;4.80;;;;;;;17.83;100.00;100996.66;5010193;28;20620;-49
2022/08/18 01:21:54;;;;;;;5.85;5.22;;;;;;;17.75;100.00;100997.09;5009831;28;20184;-48
2022/08/18 01:27:17;;;;;;;6.53;4.93;;;;;;;17.63;100.00;100996.09;5009790;28;20220;-48
2022/08/18 01:29:44;;;;;;;6.72;4.40;;;;;;;17.67;100.00;100999.47;5008214;28;20177;-47
2022/08/18 01:32:15;;;;;;;6.18;3.95;;;;;;;17.78;100.00;100991.50;5008672;28;20869;-48
2022/08/18 01:34:40;;;;;;;5.63;4.40;;;;;;;17.76;100.00;100990.72;5009577;28;20596;-47
2022/08/18 01:37:06;;;;;;;5.80;4.32;;;;;;;17.69;100.00;100989.41;5010078;28;20184;-47
2022/08/18 01:39:32;;;;;;;7.07;4.28;;;;;;;17.69;100.00;100995.69;5012510;28;20203;-48
2022/08/18 01:41:58;;;;;;;4.63;3.58;;;;;;;17.80;100.00;100985.97;5013585;28;20609;-46
2022/08/18 01:44:23;;;;;;;5.68;4.18;;;;;;;17.76;100.00;100982.59;5013414;28;20239;-48
2022/08/18 01:46:49;;;;;;;7.95;4.50;;;;;;;17.84;100.00;100979.41;5013643;28;20213;-47
2022/08/18 01:49:17;;;;;;;4.20;3.83;;;;;;;17.81;100.00;100980.44;5013002;28;20252;-47
2022/08/18 01:51:42;;;;;;;9.65;3.75;;;;;;;17.80;100.00;100969.69;5013375;28;20177;-48
2022/08/18 01:54:11;;;;;;;7.25;3.80;;;;;;;17.77;100.00;100975.34;5013446;28;20399;-47
2022/08/18 01:56:37;;;;;;;7.38;4.38;;;;;;;17.74;100.00;100971.00;5017565;28;20172;-47
2022/08/18 01:59:05;;;;;;;6.70;3.63;;;;;;;17.74;100.00;100976.41;5032639;28;20234;-47
2022/08/18 02:01:30;;;;;;;5.07;3.80;;;;;;;17.80;100.00;100967.00;5032999;28;20191;-47
2022/08/18 02:03:58;;;;;;;4.63;3.67;;;;;;;17.82;100.00;100960.56;5031226;28;20200;-47
2022/08/18 02:06:24;;;;;;;8.98;3.85;;;;;;;17.59;100.00;100962.03;5030770;28;20208;-47
2022/08/18 02:08:50;;;;;;;6.25;4.28;;;;;;;17.54;100.00;100955.19;5031933;28;20192;-47
2022/08/18 02:11:16;;;;;;;6.68;3.60;;;;;;;17.63;100.00;100946.44;5032783;28;20176;-47
2022/08/18 02:13:41;;;;;;;5.32;3.40;;;;;;;17.65;100.00;100947.22;5032027;28;20283;-47
2022/08/18 02:16:07;;;;;;;3.90;3.00;;;;;;;17.60;100.00;100941.22;5032444;28;20176;-46
2022/08/18 02:18:35;;;;;;;9.52;3.53;;;;;;;17.61;100.00;100940.25;5032055;28;20160;-46
2022/08/18 02:21:14;;;;;;;4.45;3.08;;;;;;;17.58;100.00;100954.88;5032161;28;20176;-46
2022/08/18 02:23:41;;;;;;;3.55;2.97;;;;;;;17.62;100.00;100939.28;5030563;28;20217;-48
2022/08/18 02:26:11;;;;;;;3.13;2.83;;;;;;;17.54;100.00;100947.06;5032492;28;20682;-48
2022/08/18 02:28:37;;;;;;;2.88;2.67;;;;;;;17.66;100.00;100946.22;5012716;28;20181;-46
2022/08/18 02:31:07;;;;;;;5.57;3.00;;;;;;;17.60;100.00;100935.78;5012275;28;20243;-49
2022/08/18 02:33:33;;;;;;;4.68;2.75;;;;;;;17.53;100.00;100946.16;5012359;28;20714;-48
2022/08/18 02:35:59;;;;;;;3.72;2.50;;;;;;;17.48;100.00;100943.75;5012395;28;20161;-47
2022/08/18 02:38:25;;;;;;;2.97;2.70;;;;;;;17.47;100.00;100943.84;5012559;28;20165;-47
2022/08/18 02:40:59;;;;;;;3.00;2.80;;;;;;;17.54;100.00;100947.91;5011757;28;20165;-46
2022/08/18 02:43:25;;;;;;;8.07;3.22;;;;;;;17.46;100.00;100939.41;5012072;28;20303;-46
2022/08/18 02:45:51;;;;;;;3.25;2.85;;;;;;;17.49;100.00;100940.09;5012479;28;20209;-47
2022/08/18 02:48:23;;;;;;;2.80;2.60;;;;;;;17.54;100.00;100939.78;5011183;28;20171;-47
2022/08/18 02:50:48;;;;;;;3.10;2.83;;;;;;;17.52;100.00;100941.72;5011218;28;20533;-47
2022/08/18 02:53:23;;;;;;;3.40;2.45;;;;;;;17.47;100.00;100946.56;5012289;28;20226;-49
2022/08/18 02:55:49;;;;;;;4.57;2.60;;;;;;;17.43;100.00;100947.75;5012157;28;20221;-47
2022/08/18 02:58:15;;;;;;;2.95;2.35;;;;;;;17.40;100.00;100946.09;5012246;28;20184;-47
2022/08/18 03:00:41;;;;;;;3.00;2.40;;;;;;;17.38;100.00;100939.94;5011641;28;20525;-47
2022/08/18 03:03:07;;;;;;;3.28;2.80;;;;;;;17.37;100.00;100932.75;5012216;28;20288;-47
2022/08/18 03:05:33;;;;;;;3.50;2.50;;;;;;;17.42;100.00;100943.28;5011987;28;20216;-47
2022/08/18 03:07:59;;;;;;;4.32;2.90;;;;;;;17.39;100.00;100941.66;5011896;28;20176;-48
2022/08/18 03:10:24;;;;;;;3.00;2.70;;;;;;;17.45;100.00;100948.53;5011711;28;20240;-47
2022/08/18 03:12:50;;;;;;;4.50;2.92;;;;;;;17.34;100.00;100951.94;5011748;28;20176;-48
2022/08/18 03:15:15;;;;;;;3.30;3.00;;;;;;;17.22;100.00;100945.44;5011942;28;20200;-47
2022/08/18 03:17:41;;;;;;;5.57;2.47;;;;;;;17.20;100.00;100957.34;5012203;28;20197;-47
2022/08/18 03:20:07;;;;;;;4.00;2.50;;;;;;;17.26;100.00;100955.13;5011425;28;20169;-47
2022/08/18 03:22:33;;;;;;;3.90;2.97;;;;;;;17.26;100.00;100959.69;5011675;28;20231;-47
2022/08/18 03:24:58;;;;;;;3.22;2.60;;;;;;;17.28;100.00;100958.59;5011421;28;20720;-47
2022/08/18 03:27:24;;;;;;;6.47;3.00;;;;;;;17.17;100.00;100950.31;5009855;28;20893;-47
2022/08/18 03:29:50;;;;;;;5.05;2.38;;;;;;;17.25;100.00;100958.81;5010041;28;20195;-48
2022/08/18 03:32:16;;;;;;;5.18;3.17;;;;;;;17.05;100.00;100956.47;5011523;28;20576;-46
2022/08/18 03:34:42;;;;;;;2.92;2.70;;;;;;;17.04;100.00;100960.19;5011601;28;20215;-47
2022/08/18 03:37:08;;;;;;;5.63;3.17;;;;;;;17.05;100.00;100956.47;5011449;28;20211;-47
2022/08/18 03:39:34;;;;;;;2.53;2.33;;;;;;;17.07;100.00;100959.97;5011231;28;20255;-47
2022/08/18 03:41:59;;;;;;;2.85;2.65;;;;;;;17.09;100.00;100958.03;5010979;28;20260;-48
2022/08/18 03:44:26;;;;;;;3.83;2.92;;;;;;;17.11;100.00;100958.81;5011365;28;20204;-48
2022/08/18 03:46:52;;;;;;;3.22;2.95;;;;;;;17.10;100.00;100967.91;5010847;28;20216;-48
2022/08/18 03:49:19;;;;;;;3.85;2.83;;;;;;;16.96;100.00;100962.47;5009156;28;20200;-47
2022/08/18 03:51:46;;;;;;;4.25;2.45;;;;;;;16.98;100.00;100963.25;5011082;28;20176;-47
2022/08/18 03:54:12;;;;;;;2.80;2.60;;;;;;;16.91;100.00;100965.47;5010692;28;20200;-47
2022/08/18 03:56:40;;;;;;;3.05;2.75;;;;;;;16.92;100.00;100964.50;5018957;28;20666;-49
2022/08/18 03:59:10;;;;;;;2.67;2.58;;;;;;;16.96;100.00;100959.78;5029790;28;20184;-47
2022/08/18 04:01:39;;;;;;;3.15;2.72;;;;;;;16.99;100.00;100956.88;5029367;28;20771;-46
2022/08/18 04:04:08;;;;;;;3.13;2.90;;;;;;;16.93;100.00;100960.84;5030262;28;20683;-47
2022/08/18 04:06:41;;;;;;;3.65;3.35;;;;;;;16.81;100.00;100954.34;5028643;28;20620;-48
2022/08/18 04:09:10;;;;;;;5.13;3.58;;;;;;;16.75;100.00;100953.81;5028410;28;20200;-47
2022/08/18 04:11:37;;;;;;;4.10;3.70;;;;;;;16.69;100.00;100966.78;5030096;28;20168;-49
2022/08/18 04:14:04;;;;;;;5.35;4.18;;;;;;;16.72;100.00;100962.16;5030344;28;20220;-50
2022/08/18 04:16:31;;;;;;;5.30;4.50;;;;;;;16.68;100.00;100958.75;5030198;28;20165;-49
2022/08/18 04:19:00;;;;;;;3.72;3.42;;;;;;;16.79;100.00;100964.41;5028407;28;20646;-48
2022/08/18 04:21:26;;;;;;;3.10;2.90;;;;;;;16.85;100.00;100973.97;5030042;28;20517;-48
2022/08/18 04:23:51;;;;;;;4.55;4.15;;;;;;;16.82;100.00;100975.03;5030181;28;20196;-50
2022/08/18 04:26:18;;;;;;;5.28;4.32;;;;;;;16.80;100.00;100966.16;5028488;28;20588;-50
2022/08/18 04:28:44;;;;;;;4.38;4.05;;;;;;;16.87;100.00;100970.22;5009717;28;20180;-46
2022/08/18 04:31:13;;;;;;;4.80;4.43;;;;;;;16.86;100.00;100964.91;5009263;28;20172;-48
2022/08/18 04:33:39;;;;;;;6.80;4.75;;;;;;;16.82;100.00;100974.19;5009757;28;20205;-48
2022/08/18 04:36:13;;;;;;;5.00;4.60;;;;;;;16.84;100.00;100972.25;5008590;28;20207;-49
2022/08/18 04:38:43;;;;;;;6.10;5.60;;;;;;;16.83;100.00;100968.66;5010133;28;20180;-50
2022/08/18 04:41:11;;;;;;;4.72;4.32;;;;;;;16.96;100.00;100971.47;5010130;28;20189;-48
2022/08/18 04:43:37;;;;;;;6.07;5.55;;;;;;;16.94;100.00;100970.69;5010052;28;20254;-48
2022/08/18 04:46:02;;;;;;;6.03;5.53;;;;;;;17.14;100.00;100982.97;5009704;28;20668;-50
2022/08/18 04:48:32;;;;;;;6.57;5.78;;;;;;;17.20;100.00;100973.59;5010382;28;20220;-49
2022/08/18 04:51:16;;;;;;;7.22;5.72;;;;;;;17.00;100.00;100961.34;5009832;28;20684;-48
2022/08/18 04:53:44;;;;;;;5.13;4.70;;;;;;;17.06;100.00;100960.94;5010343;28;20644;-48
2022/08/18 04:56:33;;;;;;;5.25;4.50;;;;;;;17.14;100.00;100963.16;5010750;28;20170;-45
2022/08/18 04:59:00;;;;;;;5.97;5.13;;;;;;;17.21;100.00;100973.50;5010444;28;20189;-47
2022/08/18 05:01:32;;;;;;;5.72;5.25;;;;;;;17.37;100.00;100977.94;5010521;28;20238;-48
2022/08/18 05:03:58;;;;;;;6.03;5.30;;;;;;;17.52;100.00;100976.94;5010251;28;20573;-48
2022/08/18 05:06:26;;;;;;;6.50;5.95;;;;;;;17.66;100.00;100974.19;5010344;28;20192;-48
2022/08/18 05:08:53;;;;;;;6.75;6.00;;;;;;;17.86;100.00;100974.75;5010343;28;20176;-45
2022/08/18 05:11:20;;;;;;;7.40;6.90;;;;;;;17.99;100.00;100972.09;5010330;28;20169;-45
2022/08/18 05:13:47;;;;;;;7.30;6.60;;;;;;;18.12;100.00;100967.59;5012226;28;20205;-49
2022/08/18 05:16:13;;;;;;;7.30;6.60;;;;;;;18.10;100.00;100966.81;5014438;28;20176;-46
2022/08/18 05:18:39;;;;;;;6.93;6.38;;;;;;;18.10;100.00;100967.72;5014495;28;20576;-47
2022/08/18 05:21:12;;;;;;;6.32;5.82;;;;;;;18.11;100.00;100968.56;5014296;28;20200;-44
2022/08/18 05:23:42;;;;;;;6.75;6.20;;;;;;;18.22;100.00;100967.84;5014307;28;20271;-49
2022/08/18 05:26:08;;;;;;;6.43;5.93;;;;;;;18.29;100.00;100972.72;5012709;28;20638;-51
2022/08/18 05:28:36;;;;;;;9.57;8.80;;;;;;;18.32;100.00;100977.97;5014220;28;20279;-45
2022/08/18 05:31:12;;;;;;;9.18;8.15;;;;;;;18.46;100.00;100968.88;5014229;28;20169;-47
2022/08/18 05:33:39;;;;;;;8.40;7.60;;;;;;;18.30;100.00;100968.16;5014061;28;20761;-44
2022/08/18 05:36:23;;;;;;;7.45;6.95;;;;;;;18.45;100.00;100966.25;5014044;28;20260;-48
2022/08/18 05:39:17;;;;;;;7.22;6.72;;;;;;;18.61;100.00;100966.06;5013768;28;20173;-49
2022/08/18 05:41:49;;;;;;;9.23;8.63;;;;;;;18.53;100.00;100969.31;5000885;28;20246;-45
2022/08/18 05:44:20;;;;;;;9.60;8.70;;;;;;;18.39;100.00;100962.13;5012784;28;20208;-49
2022/08/18 05:46:58;;;;;;;9.93;9.02;;;;;;;18.42;100.00;100963.75;5011790;28;20664;-44
2022/08/18 05:49:25;;;;;;;9.80;8.82;;;;;;;18.49;100.00;100959.63;5013488;28;20577;-47
2022/08/18 05:51:56;;;;;;;10.25;9.35;;;;;;;18.36;100.00;100953.31;5013883;28;20207;-48
2022/08/18 05:57:13;;;;;;;9.68;8.75;;;;;;;18.47;100.00;100957.03;5012870;28;20180;-45
2022/08/18 05:59:41;;;;;;;10.35;9.38;;;;;;;18.57;100.00;100954.56;5013634;28;20219;-47
2022/08/18 06:02:13;;;;;;;8.93;8.23;;;;;;;18.72;100.00;100958.03;5013567;28;20161;-46
2022/08/18 06:04:45;;;;;;;8.85;8.02;;;;;;;18.82;100.00;100961.84;5013577;28;20205;-46
2022/08/18 06:07:17;;;;;;;8.45;7.75;;;;;;;18.91;100.00;100963.94;5013460;28;20169;-46
2022/08/18 06:09:49;;;;;;;8.93;8.18;;;;;;;19.25;100.00;100955.22;5013469;28;20165;-44
2022/08/18 06:12:23;;;;;;;8.85;7.95;;;;;;;19.58;100.00;100953.72;5013249;28;20180;-46
2022/08/18 06:14:49;;;;;;;8.10;7.57;;;;;;;19.49;100.00;100953.41;5013342;28;20219;-45
2022/08/18 06:17:33;;;;;;;8.38;7.25;;;;;;;19.65;100.00;100961.28;5013307;28;20165;-46
2022/08/18 06:20:32;;;;;;;7.07;6.38;;;;;;;19.73;100.00;100960.75;5013440;28;20184;-45
2022/08/18 06:23:00;;;;;;;8.07;7.25;;;;;;;19.75;100.00;100962.38;5013093;28;20204;-50
2022/08/18 06:25:50;;;;;;;7.72;7.13;;;;;;;20.03;100.00;100959.41;5011719;28;20616;-48
2022/08/18 06:28:16;;;;;;;7.78;7.05;;;;;;;20.04;100.00;100963.88;5013032;28;20357;-43
2022/08/18 06:30:49;;;;;;;7.85;7.05;;;;;;;20.14;100.00;100968.50;5012090;28;20244;-45
2022/08/18 06:33:32;;;;;;;10.20;7.93;;;;;;;20.37;100.00;100976.75;5012790;28;20615;-44
2022/08/18 06:36:07;;;;;;;7.82;6.53;;;;;;;20.69;100.00;100974.28;5012557;28;20204;-45
2022/08/18 06:38:57;;;;;;;8.57;7.15;;;;;;;20.78;100.00;100981.72;5012933;28;20184;-41
2022/08/18 06:41:32;;;;;;;9.70;8.27;;;;;;;20.89;100.00;100989.03;5012625;28;20250;-46
2022/08/18 06:44:08;;;;;;;7.90;7.20;;;;;;;21.11;100.00;100987.34;5012526;28;20218;-45
2022/08/18 06:46:43;;;;;;;6.53;6.00;;;;;;;20.85;98.70;100982.09;5012096;28;20578;-45
2022/08/18 06:49:14;;;;;;;7.68;6.63;;;;;;;20.86;98.16;100986.56;5012273;28;20235;-42
2022/08/18 06:51:39;;;;;;;8.35;7.25;;;;;;;20.99;100.00;100984.59;5012537;28;20469;-46
2022/08/18 06:54:28;;;;;;;11.82;6.65;;;;;;;20.99;98.40;100989.19;5012357;28;20207;-43
2022/08/18 06:56:56;;;;;;;6.30;5.80;;;;;;;20.96;96.60;100997.59;5004550;28;20196;-45
2022/08/18 06:59:29;;;;;;;11.05;10.13;;;;;;;21.31;96.71;100981.13;5011680;28;20276;-43
2022/08/18 07:02:09;;;;;;;15.90;14.38;;;;;;;21.29;95.78;100991.28;5011862;28;20549;-44
2022/08/18 07:04:40;;;;;;;15.57;14.27;;;;;;;21.26;94.90;100990.69;5011714;28;20297;-42
2022/08/18 07:07:30;;;;;;;15.52;14.32;;;;;;;21.39;93.40;100991.44;5012129;28;20180;-40
2022/08/18 07:09:55;;;;;;;12.88;11.93;;;;;;;21.44;92.05;100994.66;5030778;28;20199;-41
2022/08/18 07:12:25;;;;;;;12.45;11.45;;;;;;;21.66;92.09;100993.78;5031509;28;20180;-43
2022/08/18 07:14:58;;;;;;;15.25;14.05;;;;;;;22.08;91.76;100985.72;5031783;28;20274;-43
2022/08/18 07:17:29;;;;;;;11.82;10.82;;;;;;;22.24;92.35;100992.66;5031302;28;20259;-42
2022/08/18 07:20:03;;;;;;;12.23;9.43;;;;;;;22.47;88.62;100991.56;5031344;28;20254;-42
2022/08/18 07:22:30;;;;;;;10.95;8.95;;;;;;;22.59;86.67;100985.06;5030146;28;20179;-42
2022/08/18 07:24:59;;;;;;;9.05;8.25;;;;;;;22.84;86.16;100997.41;5031106;28;20244;-44
2022/08/18 07:27:42;;;;;;;8.02;6.90;;;;;;;22.76;83.30;100991.78;5031162;28;20164;-45
2022/08/18 07:30:43;;;;;;;8.00;7.15;;;;;;;23.09;83.77;100994.44;5031116;28;20187;-44
2022/08/18 07:33:24;;;;;;;7.82;5.95;;;;;;;23.45;81.37;100998.50;5030912;28;20210;-42
2022/08/18 07:35:56;;;;;;;6.15;5.55;;;;;;;23.75;81.07;100994.88;5031020;28;20682;-45
2022/08/18 07:38:30;;;;;;;6.65;6.05;;;;;;;23.08;79.12;101000.91;5031351;28;20168;-45
2022/08/18 07:41:10;;;;;;;7.50;6.28;;;;;;;23.29;80.31;101003.63;5030559;28;20183;-44
2022/08/18 07:43:50;;;;;;;6.43;5.90;;;;;;;23.73;80.80;101004.22;5030673;28;20353;-44
2022/08/18 07:46:22;;;;;;;8.15;7.28;;;;;;;23.83;80.60;101002.38;5030654;28;20210;-43
2022/08/18 07:48:48;;;;;;;8.25;7.20;;;;;;;23.85;80.66;101006.72;5030992;28;20669;-44
2022/08/18 07:51:41;;;;;;;11.70;7.90;;;;;;;23.04;80.32;101003.91;5030779;28;20249;-43
2022/08/18 07:54:20;;;;;;;9.68;6.60;;;;;;;23.74;82.08;101004.03;5030827;28;20429;-41
2022/08/18 07:57:00;;;;;;;7.55;6.85;;;;;;;23.78;80.07;100997.31;5030356;28;20156;-44
2022/08/18 07:59:47;;;;;;;7.72;6.93;;;;;;;24.23;77.03;101004.19;5030631;28;20534;-43
2022/08/18 08:02:43;;;;;;;8.02;6.20;;;;;;;24.56;75.82;101000.16;5030491;28;20163;-43
2022/08/18 08:05:14;;;;;;;7.75;6.10;;;;;;;24.38;76.67;101001.84;5030468;28;20246;-42
2022/08/18 08:07:46;;;;;;;7.78;6.93;;;;;;;24.03;76.82;101014.22;5022386;28;20259;-43
2022/08/18 08:10:27;;;;;;;7.00;6.40;;;;;;;24.09;76.71;101018.28;5030093;28;20186;-44
2022/08/18 08:13:02;;;;;;;8.88;6.22;;;;;;;24.59;76.94;101008.06;5030424;28;20607;-44
2022/08/18 08:15:45;;;;;;;6.32;5.78;;;;;;;24.71;76.05;101011.53;5030347;28;20215;-44
2022/08/18 08:18:39;;;;;;;8.68;6.63;;;;;;;24.41;76.46;101010.66;5030717;28;20512;-45
2022/08/18 08:21:13;;;;;;;7.28;6.57;;;;;;;25.01;75.31;101015.06;5029901;28;20180;-45
2022/08/18 08:24:09;;;;;;;7.95;5.97;;;;;;;24.79;74.52;101016.28;5030504;28;20747;-44
2022/08/18 08:27:04;;;;;;;6.22;5.68;;;;;;;24.84;74.10;101020.31;5029960;28;20187;-44
2022/08/18 08:29:39;;;;;;;7.65;5.63;;;;;;;25.34;71.73;101023.81;5028931;28;20179;-45
2022/08/18 08:32:08;;;;;;;6.38;5.53;;;;;;;25.52;72.54;101023.88;5030243;28;20186;-43
2022/08/18 08:34:54;;;;;;;6.60;6.00;;;;;;;25.48;73.07;101018.72;5030425;28;20290;-44
2022/08/18 08:37:45;;;;;;;6.38;5.80;;;;;;;25.70;71.13;101014.69;5030207;28;20171;-44
2022/08/18 08:40:17;;;;;;;7.05;6.40;;;;;;;25.43;72.48;101017.41;5030041;28;20175;-43
2022/08/18 08:43:10;;;;;;;6.88;6.32;;;;;;;25.60;72.23;101013.00;5028549;28;20179;-44
2022/08/18 08:45:41;;;;;;;7.00;6.18;;;;;;;25.60;72.88;101018.50;5029974;28;20562;-44
2022/08/18 08:48:22;;;;;;;7.78;6.93;;;;;;;25.12;72.19;101014.03;5029679;28;20668;-44
2022/08/18 08:50:56;;;;;;;7.65;6.72;;;;;;;24.90;73.77;101016.09;5029928;28;20186;-43
2022/08/18 08:53:25;;;;;;;7.25;6.55;;;;;;;25.11;74.92;101009.59;5030834;28;20195;-42
2022/08/18 08:55:55;;;;;;;6.82;6.05;;;;;;;25.53;74.14;101011.91;5030533;28;20663;-45
2022/08/18 08:58:36;;;;;;;6.97;6.35;;;;;;;26.02;72.01;101001.53;5029406;28;20260;-45
2022/08/18 09:01:02;;;;;;;7.35;6.75;;;;;;;25.67;71.64;101009.53;5062381;28;20211;-44
2022/08/18 09:03:52;;;;;;;6.72;6.10;;;;;;;25.69;74.55;101010.25;5030750;28;20202;-44
2022/08/18 09:06:34;;;;;;;7.60;6.38;;;;;;;26.35;72.00;100996.34;5030314;28;20566;-44
2022/08/18 09:09:43;;;;;;;9.57;6.78;;;;;;;26.57;69.77;100997.81;5030110;28;20199;-43
2022/08/18 09:12:24;;;;;;;8.02;7.40;;;;;;;26.55;67.77;100997.06;5030444;28;20546;-45
2022/08/18 09:14:59;;;;;;;7.85;7.05;;;;;;;26.06;70.69;100997.44;5030586;28;20191;-44
2022/08/18 09:17:36;;;;;;;7.65;6.80;;;;;;;26.23;71.23;100998.50;5030293;28;20596;-44
2022/08/18 09:20:27;;;;;;;9.57;8.50;;;;;;;26.20;69.55;101001.56;5030225;28;20208;-43
2022/08/18 09:23:09;;;;;;;10.35;8.18;;;;;;;26.37;69.43;100995.22;5029006;28;20176;-44
2022/08/18 09:25:40;;;;;;;9.30;8.50;;;;;;;26.16;67.76;100994.66;5030050;28;20210;-43
2022/08/18 09:28:15;;;;;;;10.55;9.65;;;;;;;25.34;68.45;100991.75;5062765;28;20183;-44
2022/08/18 09:30:44;;;;;;;9.07;8.27;;;;;;;26.31;69.34;100984.84;5029936;28;20174;-43
2022/08/18 09:33:47;;;;;;;9.23;8.43;;;;;;;26.26;67.95;100985.31;5030485;28;20207;-40
2022/08/18 09:36:33;;;;;;;9.90;9.05;;;;;;;26.31;68.31;100974.72;5029733;28;20328;-43
2022/08/18 09:41:58;;;;;;;12.23;8.95;;;;;;;24.82;72.40;100978.50;5030509;28;20189;-44
2022/08/18 09:44:45;;;;;;;10.57;9.77;;;;;;;24.68;73.01;100984.41;5030054;28;20230;-44
2022/08/18 09:47:20;;;;;;;10.00;9.00;;;;;;;24.93;73.15;100979.34;5029945;28;20261;-42
2022/08/18 09:49:48;;;;;;;10.75;9.68;;;;;;;25.06;74.70;100985.38;5029889;28;20190;-43
2022/08/18 09:52:20;;;;;;;10.65;9.75;;;;;;;24.77;76.87;100982.69;5029495;28;20198;-43
2022/08/18 09:54:57;;;;;;;9.88;8.88;;;;;;;24.95;76.32;100994.63;5028881;28;20238;-42
2022/08/18 09:57:33;;;;;;;9.88;9.00;;;;;;;24.36;76.29;100988.31;5029494;28;20179;-41
2022/08/18 10:00:01;;;;;;;11.02;8.88;;;;;;;24.72;76.42;100998.69;5031188;28;20183;-42
2022/08/18 10:02:34;;;;;;;10.48;8.13;;;;;;;25.87;75.70;100982.81;5064502;28;20194;-43
2022/08/18 10:05:18;;;;;;;11.20;9.10;;;;;;;25.77;74.51;100976.53;5033186;28;20188;-41
2022/08/18 10:07:47;;;;;;;11.88;8.38;;;;;;;25.73;75.16;100975.09;5033262;28;20730;-43
2022/08/18 10:10:26;;;;;;;12.40;9.60;;;;;;;25.42;73.76;100983.63;5032485;28;20178;-43
2022/08/18 10:13:02;;;;;;;10.73;9.63;;;;;;;25.44;75.21;100976.13;5031105;28;20166;-42
2022/08/18 10:15:37;;;;;;;14.70;10.30;;;;;;;25.27;75.18;100980.53;5031778;28;20179;-43
2022/08/18 10:18:09;;;;;;;18.95;10.65;;;;;;;25.11;77.42;100985.75;5033388;28;20175;-42
2022/08/18 10:20:57;;;;;;;11.10;9.38;;;;;;;24.80;77.87;100982.41;5031889;28;20175;-42
2022/08/18 10:23:52;;;;;;;13.57;10.48;;;;;;;24.88;77.89;100982.50;5033377;28;20690;-40
2022/08/18 10:26:29;;;;;;;11.35;9.35;;;;;;;25.05;77.30;100984.47;5031047;28;20207;-43
2022/08/18 10:29:00;;;;;;;15.90;9.82;;;;;;;25.27;77.14;100976.94;5011897;28;20179;-41
2022/08/18 10:31:28;;;;;;;12.75;10.10;;;;;;;24.75;76.91;100979.22;5013643;28;20164;-43
2022/08/18 10:34:02;;;;;;;12.82;9.50;;;;;;;25.03;77.06;100975.53;5013660;28;20541;-42
2022/08/18 10:36:51;;;;;;;15.02;10.48;;;;;;;24.98;75.57;100979.75;5013256;28;20156;-42
2022/08/18 10:39:40;;;;;;;11.35;10.20;;;;;;;24.91;75.88;100982.22;5013172;28;20180;-41
2022/08/18 10:42:31;;;;;;;10.77;9.63;;;;;;;24.74;75.36;100982.97;5013233;28;20188;-42
2022/08/18 10:45:08;;;;;;;11.25;10.23;;;;;;;24.56;76.37;100969.16;5012946;28;20208;-41
2022/08/18 10:47:35;;;;;;;12.68;9.93;;;;;;;24.33;77.72;100974.03;5013347;28;20172;-42
2022/08/18 10:50:07;;;;;;;10.85;9.80;;;;;;;24.73;77.43;100973.00;5013158;28;20177;-42
2022/08/18 10:53:11;;;;;;;11.57;10.32;;;;;;;24.61;76.23;100975.06;5013116;28;20216;-42
2022/08/18 10:55:49;;;;;;;12.38;10.48;;;;;;;24.66;76.26;100972.75;5001988;28;20713;-44
2022/08/18 10:58:45;;;;;;;10.90;9.80;;;;;;;24.62;76.05;100972.19;5012949;28;20632;-46
2022/08/18 11:01:20;;;;;;;12.82;10.80;;;;;;;24.23;77.77;100968.59;5012715;28;20206;-44
2022/08/18 11:03:59;;;;;;;12.38;10.65;;;;;;;24.13;77.52;100971.31;5012912;28;20798;-47
2022/08/18 11:06:25;;;;;;;12.35;10.40;;;;;;;24.12;78.99;100975.06;5012815;28;20349;-46
2022/08/18 11:08:58;;;;;;;12.85;11.52;;;;;;;24.21;78.12;100976.06;5012416;28;20170;-45
2022/08/18 11:11:35;;;;;;;10.73;9.27;;;;;;;24.17;77.59;100985.59;5012421;28;20189;-46
2022/08/18 11:14:10;;;;;;;11.60;9.70;;;;;;;24.20;77.96;100977.94;5012456;28;20548;-45
2022/08/18 11:16:54;;;;;;;12.05;10.30;;;;;;;24.17;77.72;100980.97;5012906;28;20620;-46
2022/08/18 11:19:21;;;;;;;11.40;10.13;;;;;;;24.01;78.21;100991.63;5011747;28;20226;-46
2022/08/18 11:21:49;;;;;;;11.90;10.70;;;;;;;24.01;78.93;100986.16;5018560;28;20249;-45
2022/08/18 11:24:28;;;;;;;14.88;11.23;;;;;;;24.41;78.36;100977.78;5031572;28;20202;-46
2022/08/18 11:27:11;;;;;;;12.20;10.10;;;;;;;24.37;77.55;100975.50;5024097;28;20196;-47
2022/08/18 11:29:41;;;;;;;11.95;10.23;;;;;;;24.24;77.35;100971.16;5012455;28;20169;-46
2022/08/18 11:32:26;;;;;;;11.07;9.98;;;;;;;23.84;78.73;100991.28;5011665;28;20165;-48
2022/08/18 11:34:58;;;;;;;12.43;10.27;;;;;;;24.08;78.28;100976.34;5011515;28;20192;-45
2022/08/18 11:37:51;;;;;;;10.07;9.23;;;;;;;24.52;77.44;100976.81;5011329;28;20223;-46
2022/08/18 11:40:20;;;;;;;11.18;10.07;;;;;;;24.53;77.89;100972.19;5011111;28;20164;-46
2022/08/18 11:43:09;;;;;;;10.52;9.35;;;;;;;24.47;77.93;100974.47;5011550;28;20191;-46
2022/08/18 11:45:51;;;;;;;12.30;9.90;;;;;;;24.46;76.45;100967.25;5011329;28;20212;-46
2022/08/18 11:48:23;;;;;;;12.68;10.15;;;;;;;24.45;76.63;100962.81;5011610;28;20173;-47
2022/08/18 11:50:51;;;;;;;12.02;10.30;;;;;;;24.23;77.78;100969.44;5010673;28;20231;-47
2022/08/18 11:53:32;;;;;;;11.68;9.98;;;;;;;24.49;78.67;100960.69;5011489;28;20703;-48
2022/08/18 11:56:12;;;;;;;15.70;11.25;;;;;;;24.19;78.59;100970.72;5011309;28;20204;-48
2022/08/18 11:58:48;;;;;;;14.25;10.43;;;;;;;24.35;78.08;100966.56;5011397;28;20179;-47